Time;durP1;ratioP1;P1;durP2;ratioP2;P2;SDS_P1;SDS_P2;PMS_P1;PMS_P2;Temp;Humidity;BMP_temperature;BMP_pressure;BME280_temperature;BME280_humidity;BME280_pressure;Samples;Min_cycle;Max_cycle;Signal;HPM_P1;HPM_P2
2023/10/15 00:00:59;;;;;;;14.80;7.40;;;;;;;22.17;51.08;99310.17;107893;1256;62583;-66
2023/10/15 00:03:25;;;;;;;13.10;7.10;;;;;;;22.25;50.99;99303.31;107915;1256;60024;-66
2023/10/15 00:05:52;;;;;;;18.80;8.20;;;;;;;22.23;51.54;99303.13;107937;1256;73650;-67
2023/10/15 00:08:19;;;;;;;18.80;7.20;;;;;;;22.38;50.58;99296.13;107906;1260;70409;-66
2023/10/15 00:10:46;;;;;;;16.80;7.50;;;;;;;22.23;51.51;99298.25;107958;1256;72646;-66
2023/10/15 00:13:13;;;;;;;22.40;8.00;;;;;;;22.32;51.45;99295.23;107878;1256;60402;-67
2023/10/15 00:15:40;;;;;;;16.20;7.40;;;;;;;22.24;51.59;99294.58;107728;1256;60572;-67
2023/10/15 00:18:07;;;;;;;17.10;7.50;;;;;;;22.21;51.92;99295.11;107941;1256;73914;-66
2023/10/15 00:20:40;;;;;;;14.80;7.30;;;;;;;22.22;51.60;99293.17;107980;1256;70372;-67
2023/10/15 00:23:07;;;;;;;13.90;7.10;;;;;;;22.42;51.55;99284.11;107936;1255;71438;-66
2023/10/15 00:25:35;;;;;;;14.80;8.00;;;;;;;22.38;51.79;99286.14;107921;1256;60766;-65
2023/10/15 00:28:08;;;;;;;10.90;6.40;;;;;;;22.69;50.82;99277.82;107936;1256;60349;-66
2023/10/15 00:30:37;;;;;;;15.30;7.90;;;;;;;22.64;51.05;99281.55;107955;1256;73152;-66
2023/10/15 00:33:06;;;;;;;23.80;7.80;;;;;;;22.52;51.31;99283.08;107756;1257;70126;-66
2023/10/15 00:35:33;;;;;;;17.80;7.60;;;;;;;22.41;51.69;99285.41;107979;1257;72502;-66
2023/10/15 00:38:16;;;;;;;15.30;8.00;;;;;;;22.51;51.68;99288.72;108001;1256;61837;-67
2023/10/15 00:40:45;;;;;;;18.00;7.30;;;;;;;22.43;51.68;99289.02;107917;1256;60058;-67
2023/10/15 00:43:17;;;;;;;16.20;7.50;;;;;;;22.38;51.80;99290.76;107886;1260;71340;-65
2023/10/15 00:45:44;;;;;;;14.70;7.60;;;;;;;22.48;51.79;99287.11;107875;1260;70199;-65
2023/10/15 00:48:56;;;;;;;16.40;7.10;;;;;;;22.37;52.12;99285.32;107525;1256;72659;-66
2023/10/15 00:51:13;;;;;;;13.20;6.80;;;;;;;22.12;52.69;99284.38;107831;1256;62180;-66
2023/10/15 00:53:54;;;;;;;19.00;7.70;;;;;;;22.16;52.72;99287.77;107670;1256;60442;-66
2023/10/15 00:56:26;;;;;;;13.00;7.40;;;;;;;22.33;51.86;99285.19;107865;1260;73913;-67
2023/10/15 01:01:21;;;;;;;15.60;7.90;;;;;;;21.89;53.56;99279.27;107678;1256;60398;-67
2023/10/15 01:03:52;;;;;;;15.20;7.70;;;;;;;22.01;53.04;99277.04;107899;1260;61944;-65
2023/10/15 01:07:20;;;;;;;14.60;7.40;;;;;;;21.94;53.70;99285.41;107987;1256;60322;-67
2023/10/15 01:09:28;;;;;;;17.00;7.00;;;;;;;21.84;53.61;99280.70;107768;1256;73923;-65
2023/10/15 01:12:41;;;;;;;16.80;7.50;;;;;;;21.92;53.18;99275.02;107826;1256;70366;-66
2023/10/15 01:14:44;;;;;;;16.20;8.00;;;;;;;21.98;53.49;99278.72;107556;1256;72368;-67
2023/10/15 01:17:11;;;;;;;14.00;7.40;;;;;;;21.97;53.45;99276.16;107877;1256;61754;-64
2023/10/15 01:19:38;;;;;;;17.60;7.70;;;;;;;21.74;54.13;99275.20;107671;1256;60302;-65
2023/10/15 01:22:07;;;;;;;12.10;7.30;;;;;;;21.57;54.76;99274.30;107674;1257;73831;-66
2023/10/15 01:24:38;;;;;;;16.00;7.70;;;;;;;21.66;54.50;99272.92;107711;1256;70553;-67
2023/10/15 01:27:09;;;;;;;18.80;8.70;;;;;;;21.78;54.15;99268.60;107874;1256;72806;-67
2023/10/15 01:29:44;;;;;;;15.20;7.50;;;;;;;21.55;55.00;99262.40;107930;1256;61543;-66
2023/10/15 01:32:13;;;;;;;14.00;7.10;;;;;;;21.55;54.87;99258.77;107881;1256;60113;-67
2023/10/15 01:34:49;;;;;;;12.30;7.70;;;;;;;21.55;54.96;99257.36;107906;1256;73693;-67
2023/10/15 01:37:24;;;;;;;18.50;7.90;;;;;;;21.59;54.71;99255.89;107893;1256;70362;-66
2023/10/15 01:39:52;;;;;;;15.70;8.00;;;;;;;21.53;54.98;99254.52;107908;1256;72705;-66
2023/10/15 01:45:15;;;;;;;12.30;8.00;;;;;;;21.51;54.91;99247.75;108024;1256;60434;-66
2023/10/15 01:50:23;;;;;;;16.60;7.60;;;;;;;21.41;55.68;99254.64;107954;1256;68119;-64
2023/10/15 01:52:54;;;;;;;20.20;8.30;;;;;;;21.69;54.76;99253.70;107956;1260;73228;-65
2023/10/15 01:55:21;;;;;;;15.60;8.20;;;;;;;21.48;55.20;99255.14;107979;1256;61958;-65
2023/10/15 01:57:47;;;;;;;15.30;7.80;;;;;;;21.51;55.22;99249.23;107906;1256;60397;-64
2023/10/15 02:00:33;;;;;;;14.40;8.20;;;;;;;21.50;55.06;99251.44;107911;1256;74222;-67
2023/10/15 02:03:00;;;;;;;14.30;8.30;;;;;;;21.51;55.27;99245.65;107985;1256;68932;-65
2023/10/15 02:05:40;;;;;;;13.40;8.00;;;;;;;21.39;55.49;99250.48;107942;1256;72516;-65
2023/10/15 02:08:12;;;;;;;19.30;9.20;;;;;;;21.34;55.66;99248.52;107923;1256;61788;-65
2023/10/15 02:10:48;;;;;;;14.40;7.80;;;;;;;21.27;56.13;99248.09;107903;1256;60432;-66
2023/10/15 02:13:21;;;;;;;15.90;8.50;;;;;;;21.15;56.37;99246.92;107933;1256;73675;-66
2023/10/15 02:15:55;;;;;;;13.60;8.00;;;;;;;21.42;55.45;99247.88;107946;1256;70060;-66
2023/10/15 02:18:22;;;;;;;13.90;8.40;;;;;;;21.38;55.64;99246.90;107855;1255;122081;-65
2023/10/15 02:22:16;;;;;;;20.70;8.90;;;;;;;18.92;63.03;99249.25;105363;1286;600677;-66
2023/10/15 02:24:47;;;;;;;15.60;8.00;;;;;;;19.84;60.33;99246.09;107695;1257;61727;-66
2023/10/15 02:27:25;;;;;;;15.60;8.60;;;;;;;19.98;59.76;99246.69;107705;1262;60008;-66
2023/10/15 02:29:53;;;;;;;17.80;9.00;;;;;;;19.83;60.68;99249.44;107783;1257;71078;-64
2023/10/15 02:32:21;;;;;;;17.80;8.70;;;;;;;19.86;60.24;99245.87;107809;1257;70068;-66
2023/10/15 02:34:52;;;;;;;17.50;8.40;;;;;;;19.86;60.66;99248.77;107535;1254;131711;-65
2023/10/15 02:37:23;;;;;;;18.70;8.60;;;;;;;19.92;60.50;99247.50;107985;1255;61603;-65
2023/10/15 02:39:51;;;;;;;14.30;9.40;;;;;;;19.97;60.19;99239.39;107991;1254;58999;-66
2023/10/15 02:42:20;;;;;;;15.50;9.00;;;;;;;19.83;60.73;99237.09;107961;1257;72705;-66
2023/10/15 02:44:53;;;;;;;17.00;8.60;;;;;;;19.79;60.57;99234.99;108011;1257;69962;-65
2023/10/15 02:47:41;;;;;;;22.00;10.90;;;;;;;19.65;61.13;99237.09;107890;1256;72202;-67
2023/10/15 02:50:15;;;;;;;18.50;10.90;;;;;;;19.48;62.04;99232.49;108031;1256;60451;-67
2023/10/15 02:52:46;;;;;;;22.40;12.00;;;;;;;19.65;61.32;99232.50;107943;1257;60026;-67
2023/10/15 02:55:26;;;;;;;18.50;10.40;;;;;;;19.75;61.11;99226.77;107987;1255;73095;-66
2023/10/15 02:58:00;;;;;;;18.50;9.90;;;;;;;19.74;61.25;99227.05;107848;1256;70725;-65
2023/10/15 03:00:28;;;;;;;20.80;10.50;;;;;;;19.80;60.88;99221.33;107847;1256;72797;-65
2023/10/15 03:02:57;;;;;;;20.40;10.60;;;;;;;19.91;60.66;99222.16;107848;1256;60424;-66
2023/10/15 03:05:30;;;;;;;15.90;11.00;;;;;;;19.80;60.95;99226.29;107792;1257;60041;-66
2023/10/15 03:08:01;;;;;;;20.10;12.40;;;;;;;19.83;60.72;99228.57;107800;1257;72183;-66
2023/10/15 03:10:50;;;;;;;23.00;11.50;;;;;;;19.88;60.99;99225.44;107800;1256;68161;-65
2023/10/15 03:13:18;;;;;;;19.20;11.40;;;;;;;20.02;60.37;99224.77;107767;1257;72011;-66
2023/10/15 03:15:49;;;;;;;20.30;11.90;;;;;;;19.89;60.69;99219.24;107846;1257;60467;-66
2023/10/15 03:18:23;;;;;;;21.80;10.90;;;;;;;20.01;60.55;99211.93;107801;1257;59996;-66
2023/10/15 03:21:09;;;;;;;19.10;13.40;;;;;;;19.78;61.36;99215.70;107813;1257;72162;-65
2023/10/15 03:23:39;;;;;;;21.90;12.70;;;;;;;19.79;61.21;99218.19;107677;1257;70930;-66
2023/10/15 03:26:09;;;;;;;25.80;13.70;;;;;;;19.81;61.34;99212.17;107669;1257;70602;-65
2023/10/15 03:28:44;;;;;;;23.10;14.00;;;;;;;19.84;60.91;99216.76;107663;1257;60530;-67
2023/10/15 03:31:15;;;;;;;27.80;14.60;;;;;;;19.95;60.62;99213.98;107598;1257;59660;-66
2023/10/15 03:33:59;;;;;;;25.90;14.50;;;;;;;19.83;61.10;99211.46;107623;1257;71895;-65
2023/10/15 03:36:31;;;;;;;23.00;14.50;;;;;;;19.89;60.82;99208.08;107675;1257;68883;-66
2023/10/15 03:39:10;;;;;;;22.70;14.10;;;;;;;19.82;61.29;99209.76;107755;1257;71419;-65
2023/10/15 03:41:40;;;;;;;30.40;17.00;;;;;;;19.79;61.56;99205.98;107650;1257;60437;-66
2023/10/15 03:44:10;;;;;;;27.00;16.80;;;;;;;19.83;60.95;99203.29;107617;1257;59244;-65
2023/10/15 03:46:38;;;;;;;30.80;16.40;;;;;;;19.83;61.20;99208.61;107617;1257;73221;-65
2023/10/15 03:49:08;;;;;;;27.10;15.60;;;;;;;19.66;61.59;99206.69;107688;1257;69590;-66
2023/10/15 03:51:40;;;;;;;26.70;15.70;;;;;;;19.52;62.02;99207.91;107636;1262;72739;-66
2023/10/15 03:54:08;;;;;;;28.60;16.20;;;;;;;19.60;62.02;99207.98;107592;1259;60596;-66
2023/10/15 03:56:36;;;;;;;25.50;15.80;;;;;;;19.71;61.40;99202.71;107588;1257;60078;-66
2023/10/15 03:59:03;;;;;;;24.40;16.70;;;;;;;19.86;60.97;99199.64;107605;1257;73436;-66
2023/10/15 04:01:30;;;;;;;24.60;16.50;;;;;;;19.87;60.77;99197.58;107604;1257;69019;-67
2023/10/15 04:04:02;;;;;;;28.40;16.30;;;;;;;19.89;60.54;99203.45;107596;1262;72671;-66
2023/10/15 04:06:30;;;;;;;26.60;15.60;;;;;;;19.77;61.15;99208.41;107677;1260;60423;-64
2023/10/15 04:11:38;;;;;;;27.70;19.10;;;;;;;19.75;60.99;99209.00;107697;1257;71769;-66
2023/10/15 04:14:13;;;;;;;30.90;19.10;;;;;;;19.64;61.54;99212.78;107644;1257;69983;-65
2023/10/15 04:16:41;;;;;;;33.20;19.50;;;;;;;19.70;61.07;99207.50;107586;1258;73487;-66
2023/10/15 04:19:09;;;;;;;33.40;18.20;;;;;;;19.64;61.39;99204.20;107628;1257;60318;-66
2023/10/15 04:21:40;;;;;;;25.50;16.00;;;;;;;19.46;61.89;99202.46;107655;1257;60081;-67
2023/10/15 04:24:07;;;;;;;29.10;14.50;;;;;;;19.43;61.71;99202.91;107604;1259;74613;-67
2023/10/15 04:26:40;;;;;;;19.50;12.50;;;;;;;19.41;62.08;99208.58;107632;1262;69665;-64
2023/10/15 04:29:18;;;;;;;23.60;13.80;;;;;;;19.37;62.18;99204.47;107659;1257;72747;-66
2023/10/15 04:31:57;;;;;;;20.70;12.20;;;;;;;19.60;61.61;99196.95;107642;1258;61042;-66
2023/10/15 04:34:29;;;;;;;17.70;11.30;;;;;;;19.49;61.86;99195.05;107587;1257;59950;-67
2023/10/15 04:37:07;;;;;;;22.10;13.30;;;;;;;19.32;62.34;99201.16;107964;1257;73097;-66
2023/10/15 04:39:36;;;;;;;23.50;12.30;;;;;;;19.24;62.69;99202.08;107949;1254;70125;-67
2023/10/15 04:42:28;;;;;;;20.20;10.80;;;;;;;19.24;62.81;99201.77;108006;1254;72649;-66
2023/10/15 04:44:55;;;;;;;21.10;12.70;;;;;;;19.11;63.06;99203.06;107997;1256;60439;-66
2023/10/15 04:47:33;;;;;;;28.00;12.40;;;;;;;19.03;63.71;99206.20;108010;1254;59507;-67
2023/10/15 04:50:04;;;;;;;15.40;11.20;;;;;;;19.15;63.60;99208.59;107906;1254;71820;-68
2023/10/15 04:52:39;;;;;;;24.90;12.90;;;;;;;19.13;63.38;99209.61;108020;1254;70141;-66
2023/10/15 04:55:08;;;;;;;21.60;12.90;;;;;;;19.33;63.03;99216.23;107872;1259;71463;-65
2023/10/15 04:57:35;;;;;;;19.90;12.20;;;;;;;19.44;62.61;99219.15;107976;1254;60362;-65
2023/10/15 05:00:06;;;;;;;23.70;14.40;;;;;;;19.36;62.65;99217.70;107944;1254;60049;-66
2023/10/15 05:02:34;;;;;;;20.60;12.40;;;;;;;19.37;62.68;99218.34;107919;1254;73089;-66
2023/10/15 05:05:05;;;;;;;23.40;14.80;;;;;;;19.18;63.06;99219.45;107991;1254;69327;-65
2023/10/15 05:07:33;;;;;;;25.70;16.10;;;;;;;19.37;62.61;99217.42;107839;1254;70111;-67
2023/10/15 05:10:00;;;;;;;20.80;15.70;;;;;;;19.45;62.43;99214.09;107932;1254;60374;-65
2023/10/15 05:12:31;;;;;;;29.40;16.90;;;;;;;19.42;62.18;99212.90;107909;1254;60313;-65
2023/10/15 05:14:58;;;;;;;24.90;16.70;;;;;;;19.35;62.72;99210.38;107909;1254;71769;-66
2023/10/15 05:17:26;;;;;;;25.10;17.60;;;;;;;19.26;62.94;99207.23;107926;1254;70080;-66
2023/10/15 05:19:53;;;;;;;31.00;19.10;;;;;;;19.33;62.83;99213.55;107923;1256;71388;-67
2023/10/15 05:22:21;;;;;;;29.40;18.50;;;;;;;19.29;63.41;99213.77;107977;1254;61717;-68
2023/10/15 05:24:48;;;;;;;28.00;17.30;;;;;;;19.52;62.70;99217.41;107997;1259;59522;-66
2023/10/15 05:27:16;;;;;;;24.00;15.90;;;;;;;19.74;62.53;99220.43;108015;1254;71927;-66
2023/10/15 05:29:43;;;;;;;24.80;16.20;;;;;;;20.18;61.14;99219.68;107872;1256;70602;-66
2023/10/15 05:32:10;;;;;;;21.90;13.10;;;;;;;20.59;59.68;99225.20;107943;1254;72746;-65
2023/10/15 05:34:38;;;;;;;16.80;11.90;;;;;;;20.66;59.09;99229.77;107885;1254;60426;-67
2023/10/15 05:37:06;;;;;;;25.90;12.70;;;;;;;21.04;57.95;99230.12;107898;1254;59483;-66
2023/10/15 05:39:33;;;;;;;18.10;11.00;;;;;;;21.29;57.16;99222.04;107905;1254;73535;-68
2023/10/15 05:42:01;;;;;;;17.80;9.90;;;;;;;21.47;56.34;99221.21;107903;1259;69179;-67
2023/10/15 05:44:28;;;;;;;15.30;10.20;;;;;;;21.58;55.99;99227.12;107937;1254;71805;-67
2023/10/15 05:46:55;;;;;;;17.20;9.10;;;;;;;21.63;55.60;99227.65;107970;1257;60455;-66
2023/10/15 05:49:23;;;;;;;11.70;7.90;;;;;;;21.83;55.33;99226.03;107960;1259;59488;-66
2023/10/15 05:51:51;;;;;;;11.60;6.90;;;;;;;22.19;54.44;99226.47;107935;1254;71769;-66
2023/10/15 05:54:19;;;;;;;14.20;6.90;;;;;;;22.45;53.51;99233.36;107930;1254;69187;-66
2023/10/15 05:56:46;;;;;;;18.60;7.80;;;;;;;22.57;52.59;99234.48;107904;1254;72879;-66
2023/10/15 05:59:14;;;;;;;14.00;7.90;;;;;;;22.55;52.50;99235.92;107865;1254;60519;-65
2023/10/15 06:01:42;;;;;;;11.50;6.60;;;;;;;22.94;52.01;99236.11;107913;1254;59965;-66
2023/10/15 06:04:09;;;;;;;18.90;7.50;;;;;;;23.32;50.84;99232.19;107903;1254;73349;-64
2023/10/15 06:06:36;;;;;;;10.70;6.60;;;;;;;23.43;50.50;99234.05;107887;1254;69954;-66
2023/10/15 06:09:05;;;;;;;12.40;7.30;;;;;;;23.71;49.93;99237.23;107908;1255;71401;-66
2023/10/15 06:11:34;;;;;;;18.30;7.20;;;;;;;24.06;49.08;99232.08;107819;1254;60410;-66
2023/10/15 06:14:04;;;;;;;13.20;7.50;;;;;;;24.35;47.74;99229.31;107918;1254;59479;-65
2023/10/15 06:16:32;;;;;;;14.80;7.50;;;;;;;24.73;46.63;99227.89;107954;1254;72829;-66
2023/10/15 06:18:59;;;;;;;11.10;6.80;;;;;;;24.97;46.11;99227.48;107995;1257;69817;-67
2023/10/15 06:21:27;;;;;;;12.90;7.60;;;;;;;25.27;45.59;99230.79;107872;1254;71441;-67
2023/10/15 06:23:54;;;;;;;12.30;7.40;;;;;;;25.58;44.40;99226.58;107894;1256;60468;-67
2023/10/15 06:26:21;;;;;;;14.10;7.30;;;;;;;25.92;44.09;99232.30;107897;1254;60235;-67
2023/10/15 06:28:49;;;;;;;17.50;7.90;;;;;;;26.21;42.98;99226.75;108016;1254;71805;-67
2023/10/15 06:31:16;;;;;;;15.10;7.70;;;;;;;26.41;42.50;99234.84;107959;1254;69412;-67
2023/10/15 06:33:44;;;;;;;12.20;7.00;;;;;;;26.73;42.39;99237.50;107891;1256;72396;-67
2023/10/15 06:36:11;;;;;;;12.20;7.00;;;;;;;26.86;41.28;99239.45;107893;1256;60082;-66
2023/10/15 06:38:39;;;;;;;11.00;5.90;;;;;;;26.81;41.49;99241.84;107963;1254;60048;-67
2023/10/15 06:41:10;;;;;;;14.80;6.40;;;;;;;26.79;41.14;99237.42;107925;1253;72658;-67
2023/10/15 06:43:37;;;;;;;14.60;7.00;;;;;;;26.64;40.90;99235.88;107964;1253;69170;-66
2023/10/15 06:46:08;;;;;;;14.10;6.70;;;;;;;26.97;40.56;99236.28;107946;1256;71460;-67
2023/10/15 06:48:37;;;;;;;16.10;6.90;;;;;;;27.32;39.94;99240.52;108023;1253;59097;-66
2023/10/15 06:51:06;;;;;;;11.90;6.30;;;;;;;27.66;39.65;99243.04;108103;1253;60965;-69
2023/10/15 06:53:36;;;;;;;15.50;6.70;;;;;;;28.07;38.68;99243.78;108023;1253;74262;-67
2023/10/15 06:56:06;;;;;;;16.10;8.20;;;;;;;28.19;37.92;99237.58;108034;1253;68740;-66
2023/10/15 06:58:35;;;;;;;13.90;7.30;;;;;;;28.19;37.80;99238.20;107977;1256;72726;-67
2023/10/15 07:01:06;;;;;;;12.00;7.40;;;;;;;27.97;37.83;99244.20;108054;1259;60410;-67
2023/10/15 07:03:34;;;;;;;19.80;7.80;;;;;;;27.47;38.05;99241.56;108017;1253;60700;-67
2023/10/15 07:06:02;;;;;;;10.10;6.50;;;;;;;26.87;39.68;99235.75;107970;1253;73944;-67
2023/10/15 07:08:30;;;;;;;13.20;7.40;;;;;;;26.31;40.44;99238.19;107973;1253;70447;-68
2023/10/15 07:10:59;;;;;;;14.10;7.30;;;;;;;26.01;41.05;99239.13;107951;1253;71359;-66
2023/10/15 07:13:27;;;;;;;16.00;7.80;;;;;;;25.92;41.31;99246.41;108009;1253;60546;-67
2023/10/15 07:15:55;;;;;;;17.70;8.60;;;;;;;25.59;41.56;99250.23;107988;1253;60191;-67
2023/10/15 07:18:22;;;;;;;17.30;7.80;;;;;;;25.36;42.51;99254.73;108006;1253;73907;-66
2023/10/15 07:20:49;;;;;;;13.50;7.90;;;;;;;25.12;42.76;99256.96;107959;1258;68699;-67
2023/10/15 07:23:17;;;;;;;13.80;8.90;;;;;;;24.87;43.25;99256.83;107997;1257;71937;-67
2023/10/15 07:25:45;;;;;;;19.50;7.90;;;;;;;24.58;44.02;99256.96;107984;1254;60342;-67
2023/10/15 07:28:13;;;;;;;16.40;7.90;;;;;;;24.28;44.37;99259.95;108059;1258;60232;-67
2023/10/15 07:30:40;;;;;;;15.20;8.20;;;;;;;24.09;44.97;99267.04;108044;1253;72491;-66
2023/10/15 07:33:08;;;;;;;16.40;8.60;;;;;;;24.03;44.94;99262.28;108098;1259;70207;-67
2023/10/15 07:35:35;;;;;;;13.60;8.10;;;;;;;23.93;45.13;99263.98;108017;1253;73275;-68
2023/10/15 07:38:04;;;;;;;21.30;8.50;;;;;;;23.84;45.61;99256.25;107867;1255;60422;-67
2023/10/15 07:40:32;;;;;;;18.40;8.80;;;;;;;23.78;45.44;99253.75;107965;1253;60566;-67
2023/10/15 07:43:02;;;;;;;18.10;8.10;;;;;;;23.83;45.54;99252.42;107927;1253;73887;-67
2023/10/15 07:45:31;;;;;;;14.20;8.80;;;;;;;23.67;46.25;99251.80;108000;1253;68928;-67
2023/10/15 07:48:00;;;;;;;21.50;9.20;;;;;;;23.59;46.27;99251.52;108031;1253;70797;-67
2023/10/15 07:50:29;;;;;;;15.60;8.00;;;;;;;23.50;46.61;99254.23;107993;1254;61662;-68
2023/10/15 07:52:57;;;;;;;17.40;8.40;;;;;;;23.44;46.49;99257.07;107974;1254;60372;-67
2023/10/15 07:55:24;;;;;;;17.20;8.50;;;;;;;23.63;46.30;99257.38;107956;1253;72665;-68
2023/10/15 07:57:52;;;;;;;21.50;7.90;;;;;;;23.49;46.73;99261.05;108052;1253;70410;-67
2023/10/15 08:00:33;;;;;;;16.10;8.20;;;;;;;23.41;46.51;99270.45;108001;1253;72688;-68
2023/10/15 08:03:02;;;;;;;13.10;7.90;;;;;;;23.37;46.73;99269.08;108008;1253;60751;-65
2023/10/15 08:05:31;;;;;;;12.90;7.90;;;;;;;23.36;46.56;99277.04;108085;1253;60556;-66
2023/10/15 08:08:02;;;;;;;14.80;7.80;;;;;;;23.35;46.55;99285.02;108003;1253;73843;-67
2023/10/15 08:10:34;;;;;;;16.50;8.20;;;;;;;23.36;46.99;99290.28;107987;1253;70478;-67
2023/10/15 08:13:04;;;;;;;18.40;8.60;;;;;;;23.40;46.78;99287.70;108093;1253;71459;-67
2023/10/15 08:15:33;;;;;;;15.80;8.60;;;;;;;23.23;47.04;99290.00;107994;1253;60804;-67
2023/10/15 08:18:02;;;;;;;16.90;8.60;;;;;;;23.33;46.99;99286.55;107973;1253;60292;-67
2023/10/15 08:20:31;;;;;;;18.30;8.60;;;;;;;23.25;46.89;99283.89;108014;1253;73848;-67
2023/10/15 08:23:00;;;;;;;17.10;8.50;;;;;;;23.24;47.30;99285.57;108020;1253;70826;-66
2023/10/15 08:25:28;;;;;;;16.60;9.00;;;;;;;23.22;47.30;99286.77;108095;1253;72512;-69
2023/10/15 08:27:56;;;;;;;18.10;9.20;;;;;;;23.14;47.36;99287.36;108025;1254;61662;-66
2023/10/15 08:30:23;;;;;;;18.00;9.10;;;;;;;23.10;47.79;99285.98;108010;1253;60441;-67
2023/10/15 08:32:51;;;;;;;19.60;9.00;;;;;;;22.98;47.93;99286.83;107971;1258;73835;-67
2023/10/15 08:35:18;;;;;;;16.30;8.60;;;;;;;22.98;48.02;99290.81;107991;1253;70645;-67
2023/10/15 08:37:46;;;;;;;16.70;9.20;;;;;;;23.13;47.82;99292.09;107976;1253;72432;-64
2023/10/15 08:40:17;;;;;;;16.50;8.90;;;;;;;23.20;47.84;99296.31;107998;1253;61709;-68
2023/10/15 08:42:50;;;;;;;16.50;8.80;;;;;;;22.90;48.54;99293.95;107933;1254;60299;-66
2023/10/15 08:45:21;;;;;;;19.00;8.50;;;;;;;22.87;48.69;99298.51;107999;1254;73860;-66
2023/10/15 08:47:50;;;;;;;15.10;8.90;;;;;;;22.87;48.49;99296.92;108057;1253;69236;-67
2023/10/15 08:50:20;;;;;;;17.10;7.90;;;;;;;23.05;48.38;99294.23;108006;1256;71485;-65
2023/10/15 08:52:52;;;;;;;21.80;9.60;;;;;;;22.86;48.79;99290.76;108001;1253;60470;-66
2023/10/15 08:55:23;;;;;;;20.20;8.80;;;;;;;22.90;48.65;99288.77;107911;1253;60327;-66
2023/10/15 08:57:56;;;;;;;12.50;6.00;;;;;;;22.88;49.01;99292.00;107983;1254;73860;-67
2023/10/15 09:00:25;;;;;;;17.60;8.30;;;;;;;22.96;49.19;99291.95;108034;1253;70543;-66
2023/10/15 09:03:00;;;;;;;14.90;7.50;;;;;;;23.05;49.01;99288.54;107955;1257;73450;-67
2023/10/15 09:05:30;;;;;;;18.00;7.80;;;;;;;22.98;49.07;99287.19;107922;1254;61685;-68
2023/10/15 09:08:04;;;;;;;15.30;8.30;;;;;;;23.02;48.90;99292.08;108007;1253;60280;-68
2023/10/15 09:10:31;;;;;;;13.10;7.10;;;;;;;23.07;49.14;99295.81;107881;1255;73843;-67
2023/10/15 09:12:59;;;;;;;14.80;7.10;;;;;;;23.06;48.80;99299.64;108032;1259;68949;-66
2023/10/15 09:15:29;;;;;;;14.50;7.70;;;;;;;23.03;48.93;99306.61;108007;1256;71438;-66
2023/10/15 09:17:58;;;;;;;11.80;7.30;;;;;;;23.06;49.20;99304.83;108000;1256;61711;-67
2023/10/15 09:20:32;;;;;;;16.80;7.60;;;;;;;23.07;48.92;99308.66;108088;1253;60523;-67
2023/10/15 09:23:00;;;;;;;13.20;6.70;;;;;;;22.88;49.43;99315.60;108046;1253;73008;-66
2023/10/15 09:25:30;;;;;;;13.50;6.80;;;;;;;22.92;49.85;99313.95;108095;1253;68885;-67
2023/10/15 09:27:58;;;;;;;11.60;7.00;;;;;;;22.85;49.73;99312.00;108059;1257;72616;-67
2023/10/15 09:30:30;;;;;;;11.90;7.50;;;;;;;22.59;51.04;99313.70;107977;1254;60825;-68
2023/10/15 09:32:58;;;;;;;16.90;7.90;;;;;;;22.48;50.97;99316.38;108012;1253;60196;-67
2023/10/15 09:35:25;;;;;;;14.40;8.20;;;;;;;22.59;50.88;99317.80;108022;1253;72996;-68
2023/10/15 09:37:54;;;;;;;13.10;7.40;;;;;;;22.41;51.72;99315.66;108026;1253;73607;-66
2023/10/15 09:40:24;;;;;;;13.20;8.00;;;;;;;22.31;51.48;99317.50;107991;1259;71449;-67
2023/10/15 09:42:54;;;;;;;12.70;7.10;;;;;;;22.34;51.91;99313.16;107948;1257;60422;-67
2023/10/15 09:45:24;;;;;;;12.60;8.10;;;;;;;22.33;51.88;99323.05;108046;1253;61828;-68
2023/10/15 09:47:54;;;;;;;17.00;11.20;;;;;;;22.39;51.80;99320.38;107970;1258;72629;-67
2023/10/15 09:50:25;;;;;;;13.90;9.30;;;;;;;22.37;51.76;99323.05;107947;1253;70177;-66
2023/10/15 09:52:56;;;;;;;14.20;8.10;;;;;;;22.39;51.74;99317.98;107866;1253;71656;-67
2023/10/15 09:55:26;;;;;;;13.80;9.10;;;;;;;22.44;51.51;99315.20;107964;1256;61797;-67
2023/10/15 09:57:55;;;;;;;17.70;8.80;;;;;;;22.31;51.76;99313.04;107997;1253;60307;-67
2023/10/15 10:00:46;;;;;;;17.40;7.80;;;;;;;22.37;51.73;99318.89;107928;1253;73859;-67
2023/10/15 10:03:32;;;;;;;12.30;8.50;;;;;;;22.37;51.91;99321.41;108073;1253;70270;-66
2023/10/15 10:06:25;;;;;;;12.30;8.20;;;;;;;22.37;52.11;99321.02;108001;1253;74861;-67
2023/10/15 10:09:09;;;;;;;14.20;8.40;;;;;;;22.37;51.77;99325.11;107990;1253;62248;-67
2023/10/15 10:12:05;;;;;;;14.30;8.10;;;;;;;22.33;51.69;99328.63;107990;1254;60425;-67
2023/10/15 10:14:51;;;;;;;14.10;8.30;;;;;;;22.30;51.86;99335.84;107969;1253;74625;-67
2023/10/15 10:17:19;;;;;;;12.60;8.50;;;;;;;22.38;51.96;99332.02;108036;1253;69969;-67
2023/10/15 10:19:53;;;;;;;12.60;8.40;;;;;;;22.37;51.84;99337.13;108090;1253;71806;-67
2023/10/15 10:22:27;;;;;;;14.00;8.20;;;;;;;22.35;52.00;99336.08;108028;1253;61624;-66
2023/10/15 10:24:59;;;;;;;13.20;8.80;;;;;;;22.24;52.06;99333.96;108048;1253;60533;-67
2023/10/15 10:27:26;;;;;;;12.40;8.00;;;;;;;22.16;52.34;99339.73;108021;1259;72637;-66
2023/10/15 10:29:54;;;;;;;11.90;7.60;;;;;;;22.00;52.95;99340.73;107983;1253;69601;-67
2023/10/15 10:32:22;;;;;;;15.10;8.60;;;;;;;21.98;52.66;99346.11;107986;1254;71491;-67
2023/10/15 10:35:18;;;;;;;14.40;7.80;;;;;;;21.89;53.04;99347.20;107882;1256;61649;-67
2023/10/15 10:38:02;;;;;;;12.10;7.70;;;;;;;21.90;52.94;99349.77;107880;1260;59114;-67
2023/10/15 10:40:53;;;;;;;11.30;8.00;;;;;;;21.90;52.83;99348.53;107817;1256;72550;-67
2023/10/15 10:43:24;;;;;;;8.90;5.20;;;;;;;21.96;52.91;99350.02;107837;1254;69973;-68
2023/10/15 10:45:53;;;;;;;17.30;7.70;;;;;;;22.04;52.67;99349.80;107974;1258;72221;-67
2023/10/15 10:48:25;;;;;;;16.30;7.70;;;;;;;21.97;52.62;99353.89;107962;1256;63870;-67
2023/10/15 10:51:08;;;;;;;10.40;6.60;;;;;;;21.87;53.27;99358.78;107979;1255;60432;-66
2023/10/15 10:53:37;;;;;;;12.00;8.20;;;;;;;21.78;53.64;99359.83;107970;1257;74362;-67
2023/10/15 10:56:05;;;;;;;7.20;5.10;;;;;;;21.44;54.41;99358.83;107930;1256;69021;-67
2023/10/15 10:58:34;;;;;;;6.10;4.20;;;;;;;21.29;53.91;99357.34;107900;1257;74878;-67
2023/10/15 11:01:02;;;;;;;5.10;3.80;;;;;;;21.15;54.12;99355.58;107884;1255;61674;-67
2023/10/15 11:03:29;;;;;;;7.70;4.60;;;;;;;21.06;54.09;99351.96;107988;1256;60418;-67
2023/10/15 11:05:57;;;;;;;8.80;5.40;;;;;;;21.01;54.28;99354.79;107810;1256;71610;-68
2023/10/15 11:08:24;;;;;;;7.20;4.30;;;;;;;21.08;54.09;99344.96;107685;1256;69300;-67
2023/10/15 11:10:52;;;;;;;9.50;4.70;;;;;;;21.07;54.46;99348.61;107862;1255;72898;-67
2023/10/15 11:13:20;;;;;;;7.10;4.40;;;;;;;21.08;54.19;99347.13;107923;1255;60257;-67
2023/10/15 11:15:50;;;;;;;5.20;4.20;;;;;;;21.12;54.52;99345.33;107762;1255;60322;-67
2023/10/15 11:18:22;;;;;;;5.60;3.40;;;;;;;21.12;54.51;99343.02;107896;1256;72871;-66
2023/10/15 11:20:50;;;;;;;9.30;5.40;;;;;;;21.16;54.42;99343.55;107977;1254;70082;-67
2023/10/15 11:23:18;;;;;;;9.40;5.90;;;;;;;21.12;54.46;99346.90;107942;1255;72359;-64
2023/10/15 11:25:46;;;;;;;8.20;5.90;;;;;;;21.14;54.59;99347.48;107984;1254;60407;-66
2023/10/15 11:28:13;;;;;;;8.60;5.50;;;;;;;21.25;54.77;99351.98;107882;1260;60017;-67
2023/10/15 11:30:41;;;;;;;7.60;5.50;;;;;;;21.24;54.89;99354.60;107751;1256;76185;-66
2023/10/15 11:33:09;;;;;;;7.70;5.60;;;;;;;21.27;54.97;99355.89;107915;1260;70468;-65
2023/10/15 11:35:37;;;;;;;9.50;6.50;;;;;;;21.16;55.43;99354.27;107911;1256;71771;-67
2023/10/15 11:38:08;;;;;;;8.50;5.80;;;;;;;21.15;55.62;99346.67;107891;1256;60462;-66
2023/10/15 11:40:39;;;;;;;;;;;;;;;21.21;55.36;99349.91;107929;1256;60203;-67
2023/10/15 11:43:15;;;;;;;10.30;6.80;;;;;;;21.14;55.74;99349.81;107993;1253;73822;-67
2023/10/15 11:45:43;;;;;;;10.60;6.10;;;;;;;21.05;55.99;99352.45;108043;1253;70318;-66